sensor_id;sensor_type;location;lat;lon;timestamp;temperature;humidity
11246;DHT22;59870;50.106;8.580;2023-05-19T07:50:29;20.90;51.10
11246;DHT22;59870;50.106;8.580;2023-05-19T07:53:11;21.20;50.80
11246;DHT22;59870;50.106;8.580;2023-05-19T08:36:36;25.20;44.60
11246;DHT22;59870;50.106;8.580;2023-05-19T08:39:04;26.20;43.90
11246;DHT22;59870;50.106;8.580;2023-05-19T08:41:32;25.90;42.20
11246;DHT22;59870;50.106;8.580;2023-05-19T08:43:59;26.20;42.30
11246;DHT22;59870;50.106;8.580;2023-05-19T08:46:28;26.50;41.80
11246;DHT22;59870;50.106;8.580;2023-05-19T08:49:00;26.80;41.60
11246;DHT22;59870;50.106;8.580;2023-05-19T08:54:11;27.40;38.80
11246;DHT22;59870;50.106;8.580;2023-05-19T08:56:44;27.70;38.80
11246;DHT22;59870;50.106;8.580;2023-05-19T08:59:15;28.00;37.40
11246;DHT22;59870;50.106;8.580;2023-05-19T09:01:44;28.10;36.50
11246;DHT22;59870;50.106;8.580;2023-05-19T09:04:12;28.20;37.10
11246;DHT22;59870;50.106;8.580;2023-05-19T09:06:40;28.60;36.30
11246;DHT22;59870;50.106;8.580;2023-05-19T09:09:08;28.70;36.30
11246;DHT22;59870;50.106;8.580;2023-05-19T09:11:36;28.70;34.60
11246;DHT22;59870;50.106;8.580;2023-05-19T09:14:04;28.80;35.70
11246;DHT22;59870;50.106;8.580;2023-05-19T09:16:32;28.90;35.00
11246;DHT22;59870;50.106;8.580;2023-05-19T09:19:00;29.00;35.80
11246;DHT22;59870;50.106;8.580;2023-05-19T09:21:31;29.70;34.30
11246;DHT22;59870;50.106;8.580;2023-05-19T09:24:08;29.70;33.70
11246;DHT22;59870;50.106;8.580;2023-05-19T09:26:40;29.10;34.40
11246;DHT22;59870;50.106;8.580;2023-05-19T09:29:15;29.20;34.10
11246;DHT22;59870;50.106;8.580;2023-05-19T09:31:53;29.50;34.20
11246;DHT22;59870;50.106;8.580;2023-05-19T09:34:22;28.90;34.00
11246;DHT22;59870;50.106;8.580;2023-05-19T09:36:52;29.30;34.40
11246;DHT22;59870;50.106;8.580;2023-05-19T09:39:21;29.20;33.30
11246;DHT22;59870;50.106;8.580;2023-05-19T09:41:50;29.10;32.80
11246;DHT22;59870;50.106;8.580;2023-05-19T09:47:14;28.70;32.80
11246;DHT22;59870;50.106;8.580;2023-05-19T09:49:46;27.90;33.80
11246;DHT22;59870;50.106;8.580;2023-05-19T09:52:15;27.70;33.80
11246;DHT22;59870;50.106;8.580;2023-05-19T09:54:43;27.50;33.30
11246;DHT22;59870;50.106;8.580;2023-05-19T09:57:11;27.10;34.30
11246;DHT22;59870;50.106;8.580;2023-05-19T09:59:40;27.50;35.80
11246;DHT22;59870;50.106;8.580;2023-05-19T10:02:15;26.60;34.60
11246;DHT22;59870;50.106;8.580;2023-05-19T10:04:47;26.40;35.90
11246;DHT22;59870;50.106;8.580;2023-05-19T10:07:25;26.20;36.90
11246;DHT22;59870;50.106;8.580;2023-05-19T10:09:53;26.10;35.80
11246;DHT22;59870;50.106;8.580;2023-05-19T10:12:25;26.00;37.10
11246;DHT22;59870;50.106;8.580;2023-05-19T10:14:58;25.90;36.80
11246;DHT22;59870;50.106;8.580;2023-05-19T10:17:27;25.80;37.30
11246;DHT22;59870;50.106;8.580;2023-05-19T10:19:59;25.70;37.90
11246;DHT22;59870;50.106;8.580;2023-05-19T10:22:40;26.00;37.50
11246;DHT22;59870;50.106;8.580;2023-05-19T10:25:09;26.00;37.20
11246;DHT22;59870;50.106;8.580;2023-05-19T10:27:53;25.70;37.50
11246;DHT22;59870;50.106;8.580;2023-05-19T10:30:34;25.60;37.60
11246;DHT22;59870;50.106;8.580;2023-05-19T10:33:03;25.50;38.10
11246;DHT22;59870;50.106;8.580;2023-05-19T10:35:49;25.90;37.60
11246;DHT22;59870;50.106;8.580;2023-05-19T10:44:15;24.90;38.30
11246;DHT22;59870;50.106;8.580;2023-05-19T10:46:46;24.80;37.80
11246;DHT22;59870;50.106;8.580;2023-05-19T10:49:20;25.30;38.80
11246;DHT22;59870;50.106;8.580;2023-05-19T10:51:50;24.70;38.20
11246;DHT22;59870;50.106;8.580;2023-05-19T10:54:41;24.60;38.30
11246;DHT22;59870;50.106;8.580;2023-05-19T10:57:16;24.30;37.90
11246;DHT22;59870;50.106;8.580;2023-05-19T10:59:44;24.20;38.20
11246;DHT22;59870;50.106;8.580;2023-05-19T11:02:43;24.10;37.80
11246;DHT22;59870;50.106;8.580;2023-05-19T11:05:13;24.00;39.30
11246;DHT22;59870;50.106;8.580;2023-05-19T11:07:57;23.90;40.20
11246;DHT22;59870;50.106;8.580;2023-05-19T11:10:28;23.80;38.90
11246;DHT22;59870;50.106;8.580;2023-05-19T11:12:57;23.80;38.10
11246;DHT22;59870;50.106;8.580;2023-05-19T11:15:25;23.80;39.40
11246;DHT22;59870;50.106;8.580;2023-05-19T11:17:54;23.90;39.60
11246;DHT22;59870;50.106;8.580;2023-05-19T11:20:26;24.50;39.80
11246;DHT22;59870;50.106;8.580;2023-05-19T11:23:13;24.00;40.00
11246;DHT22;59870;50.106;8.580;2023-05-19T11:25:46;24.00;39.40
11246;DHT22;59870;50.106;8.580;2023-05-19T11:28:18;23.90;39.30
11246;DHT22;59870;50.106;8.580;2023-05-19T11:30:47;23.90;39.90
11246;DHT22;59870;50.106;8.580;2023-05-19T11:33:20;24.00;41.50
11246;DHT22;59870;50.106;8.580;2023-05-19T11:35:49;24.10;40.30
11246;DHT22;59870;50.106;8.580;2023-05-19T11:38:18;24.00;39.90
11246;DHT22;59870;50.106;8.580;2023-05-19T11:40:47;24.00;39.70
11246;DHT22;59870;50.106;8.580;2023-05-19T11:43:15;24.00;40.80
11246;DHT22;59870;50.106;8.580;2023-05-19T11:45:43;24.00;41.20
11246;DHT22;59870;50.106;8.580;2023-05-19T11:48:13;24.10;40.90
11246;DHT22;59870;50.106;8.580;2023-05-19T11:50:46;23.80;40.60
11246;DHT22;59870;50.106;8.580;2023-05-19T11:53:14;23.60;41.50
11246;DHT22;59870;50.106;8.580;2023-05-19T11:55:46;23.90;42.60
11246;DHT22;59870;50.106;8.580;2023-05-19T11:58:15;23.50;41.60
11246;DHT22;59870;50.106;8.580;2023-05-19T12:00:43;24.10;42.80
11246;DHT22;59870;50.106;8.580;2023-05-19T12:03:20;23.50;41.90
11246;DHT22;59870;50.106;8.580;2023-05-19T12:05:48;23.50;43.20
11246;DHT22;59870;50.106;8.580;2023-05-19T12:08:16;23.60;42.60
11246;DHT22;59870;50.106;8.580;2023-05-19T12:10:48;23.60;42.50
11246;DHT22;59870;50.106;8.580;2023-05-19T12:13:18;23.60;42.80
11246;DHT22;59870;50.106;8.580;2023-05-19T12:15:46;23.50;42.50
11246;DHT22;59870;50.106;8.580;2023-05-19T12:18:17;23.40;42.90
11246;DHT22;59870;50.106;8.580;2023-05-19T12:20:45;23.40;43.10
11246;DHT22;59870;50.106;8.580;2023-05-19T12:23:13;23.50;43.50
11246;DHT22;59870;50.106;8.580;2023-05-19T12:25:40;23.50;42.90
11246;DHT22;59870;50.106;8.580;2023-05-19T12:28:08;23.80;43.10
11246;DHT22;59870;50.106;8.580;2023-05-19T12:30:36;23.60;42.40
11246;DHT22;59870;50.106;8.580;2023-05-19T12:33:04;23.60;42.60
11246;DHT22;59870;50.106;8.580;2023-05-19T12:35:32;23.90;42.70
11246;DHT22;59870;50.106;8.580;2023-05-19T12:38:05;23.50;43.20
11246;DHT22;59870;50.106;8.580;2023-05-19T12:40:46;23.50;43.20
11246;DHT22;59870;50.106;8.580;2023-05-19T12:43:21;23.50;42.90
11246;DHT22;59870;50.106;8.580;2023-05-19T12:46:11;23.70;43.80
11246;DHT22;59870;50.106;8.580;2023-05-19T12:48:43;23.30;44.50
11246;DHT22;59870;50.106;8.580;2023-05-19T12:51:29;23.30;44.10
11246;DHT22;59870;50.106;8.580;2023-05-19T12:54:12;23.40;43.90
11246;DHT22;59870;50.106;8.580;2023-05-19T13:00:35;22.90;43.00
11246;DHT22;59870;50.106;8.580;2023-05-19T13:03:05;23.40;43.20
11246;DHT22;59870;50.106;8.580;2023-05-19T13:05:37;23.70;43.40
11246;DHT22;59870;50.106;8.580;2023-05-19T13:08:07;24.00;43.50
11246;DHT22;59870;50.106;8.580;2023-05-19T13:10:36;23.70;43.70
11246;DHT22;59870;50.106;8.580;2023-05-19T13:13:05;23.70;43.60
11246;DHT22;59870;50.106;8.580;2023-05-19T13:15:36;24.40;43.40
11246;DHT22;59870;50.106;8.580;2023-05-19T13:18:06;23.70;43.10
11246;DHT22;59870;50.106;8.580;2023-05-19T13:20:35;23.80;43.00
11246;DHT22;59870;50.106;8.580;2023-05-19T13:23:04;23.80;43.70
11246;DHT22;59870;50.106;8.580;2023-05-19T13:25:33;23.80;43.10
11246;DHT22;59870;50.106;8.580;2023-05-19T13:28:01;24.30;43.80
11246;DHT22;59870;50.106;8.580;2023-05-19T13:30:32;23.70;43.50
11246;DHT22;59870;50.106;8.580;2023-05-19T13:33:01;23.70;43.90
11246;DHT22;59870;50.106;8.580;2023-05-19T13:35:29;23.80;43.70
11246;DHT22;59870;50.106;8.580;2023-05-19T13:38:04;23.80;43.00
11246;DHT22;59870;50.106;8.580;2023-05-19T13:40:31;23.80;43.20
11246;DHT22;59870;50.106;8.580;2023-05-19T13:43:02;23.70;43.20
11246;DHT22;59870;50.106;8.580;2023-05-19T13:45:29;23.70;43.60
11246;DHT22;59870;50.106;8.580;2023-05-19T13:47:57;23.70;42.80
11246;DHT22;59870;50.106;8.580;2023-05-19T13:50:24;24.40;43.50
11246;DHT22;59870;50.106;8.580;2023-05-19T13:52:53;24.30;43.50
11246;DHT22;59870;50.106;8.580;2023-05-19T13:55:20;23.80;42.30
11246;DHT22;59870;50.106;8.580;2023-05-19T13:57:49;23.90;42.10
11246;DHT22;59870;50.106;8.580;2023-05-19T14:00:17;23.90;41.90
11246;DHT22;59870;50.106;8.580;2023-05-19T14:02:45;23.90;42.20
11246;DHT22;59870;50.106;8.580;2023-05-19T14:05:14;24.20;42.20
11246;DHT22;59870;50.106;8.580;2023-05-19T14:07:42;24.10;42.30
11246;DHT22;59870;50.106;8.580;2023-05-19T14:10:10;24.20;41.40
11246;DHT22;59870;50.106;8.580;2023-05-19T14:12:38;24.80;40.90
11246;DHT22;59870;50.106;8.580;2023-05-19T14:15:25;24.10;40.50
11246;DHT22;59870;50.106;8.580;2023-05-19T14:17:53;23.90;41.90
11246;DHT22;59870;50.106;8.580;2023-05-19T14:20:20;23.90;41.10
11246;DHT22;59870;50.106;8.580;2023-05-19T14:22:48;23.90;42.20
11246;DHT22;59870;50.106;8.580;2023-05-19T14:25:15;23.90;41.70
11246;DHT22;59870;50.106;8.580;2023-05-19T14:27:43;23.80;41.30
11246;DHT22;59870;50.106;8.580;2023-05-19T14:30:10;23.90;41.60
11246;DHT22;59870;50.106;8.580;2023-05-19T14:32:39;23.80;41.30
11246;DHT22;59870;50.106;8.580;2023-05-19T14:35:06;23.80;42.10
11246;DHT22;59870;50.106;8.580;2023-05-19T14:37:34;23.80;42.50
11246;DHT22;59870;50.106;8.580;2023-05-19T14:40:01;23.80;42.40
11246;DHT22;59870;50.106;8.580;2023-05-19T14:42:30;23.90;42.60
11246;DHT22;59870;50.106;8.580;2023-05-19T14:44:58;23.90;42.90
11246;DHT22;59870;50.106;8.580;2023-05-19T14:47:25;23.80;42.70
11246;DHT22;59870;50.106;8.580;2023-05-19T14:49:53;23.70;42.90
11246;DHT22;59870;50.106;8.580;2023-05-19T14:52:21;23.70;43.20
11246;DHT22;59870;50.106;8.580;2023-05-19T14:54:49;23.60;43.70
11246;DHT22;59870;50.106;8.580;2023-05-19T14:57:19;23.70;43.30
11246;DHT22;59870;50.106;8.580;2023-05-19T14:59:47;23.70;44.00
11246;DHT22;59870;50.106;8.580;2023-05-19T15:02:14;23.70;43.60
11246;DHT22;59870;50.106;8.580;2023-05-19T15:04:41;23.70;43.90
11246;DHT22;59870;50.106;8.580;2023-05-19T15:07:09;23.70;43.50
11246;DHT22;59870;50.106;8.580;2023-05-19T15:09:38;23.60;44.50
11246;DHT22;59870;50.106;8.580;2023-05-19T15:12:05;23.90;44.70
11246;DHT22;59870;50.106;8.580;2023-05-19T15:14:33;23.40;44.60
11246;DHT22;59870;50.106;8.580;2023-05-19T15:17:00;23.30;44.40
11246;DHT22;59870;50.106;8.580;2023-05-19T15:19:28;23.30;45.20
11246;DHT22;59870;50.106;8.580;2023-05-19T15:21:56;23.30;45.30
11246;DHT22;59870;50.106;8.580;2023-05-19T15:24:23;23.40;45.20
11246;DHT22;59870;50.106;8.580;2023-05-19T15:26:51;23.60;45.60
11246;DHT22;59870;50.106;8.580;2023-05-19T15:29:19;23.60;44.50
11246;DHT22;59870;50.106;8.580;2023-05-19T15:31:49;23.60;45.00
11246;DHT22;59870;50.106;8.580;2023-05-19T15:34:19;23.60;45.60
11246;DHT22;59870;50.106;8.580;2023-05-19T15:36:46;23.50;45.20
11246;DHT22;59870;50.106;8.580;2023-05-19T15:39:13;23.60;45.40
11246;DHT22;59870;50.106;8.580;2023-05-19T15:41:41;23.50;45.40
11246;DHT22;59870;50.106;8.580;2023-05-19T15:44:08;23.50;45.80
11246;DHT22;59870;50.106;8.580;2023-05-19T15:46:36;23.60;45.50
11246;DHT22;59870;50.106;8.580;2023-05-19T15:49:03;24.10;46.00
11246;DHT22;59870;50.106;8.580;2023-05-19T15:51:31;23.60;45.00
11246;DHT22;59870;50.106;8.580;2023-05-19T15:53:59;23.60;44.80
11246;DHT22;59870;50.106;8.580;2023-05-19T15:56:26;23.60;45.20
11246;DHT22;59870;50.106;8.580;2023-05-19T15:58:53;23.60;43.90
11246;DHT22;59870;50.106;8.580;2023-05-19T16:01:21;24.20;44.00
11246;DHT22;59870;50.106;8.580;2023-05-19T16:03:49;23.90;43.70
11246;DHT22;59870;50.106;8.580;2023-05-19T16:06:18;23.50;43.10
11246;DHT22;59870;50.106;8.580;2023-05-19T16:08:45;23.50;43.20
11246;DHT22;59870;50.106;8.580;2023-05-19T16:11:13;23.90;43.50
11246;DHT22;59870;50.106;8.580;2023-05-19T16:13:40;23.30;42.80
11246;DHT22;59870;50.106;8.580;2023-05-19T16:16:08;23.70;43.70
11246;DHT22;59870;50.106;8.580;2023-05-19T16:18:35;23.40;43.00
11246;DHT22;59870;50.106;8.580;2023-05-19T16:21:03;23.40;42.20
11246;DHT22;59870;50.106;8.580;2023-05-19T16:23:31;23.30;41.80
11246;DHT22;59870;50.106;8.580;2023-05-19T16:26:00;23.30;41.90
11246;DHT22;59870;50.106;8.580;2023-05-19T16:28:28;23.30;42.10
11246;DHT22;59870;50.106;8.580;2023-05-19T16:30:57;23.30;42.60
11246;DHT22;59870;50.106;8.580;2023-05-19T16:33:26;23.40;41.80
11246;DHT22;59870;50.106;8.580;2023-05-19T16:35:53;23.30;42.20
11246;DHT22;59870;50.106;8.580;2023-05-19T16:38:21;23.30;41.90
11246;DHT22;59870;50.106;8.580;2023-05-19T16:40:48;23.30;42.50
11246;DHT22;59870;50.106;8.580;2023-05-19T16:43:15;23.20;43.00
11246;DHT22;59870;50.106;8.580;2023-05-19T16:45:43;23.20;43.40
11246;DHT22;59870;50.106;8.580;2023-05-19T16:48:11;23.30;42.60
11246;DHT22;59870;50.106;8.580;2023-05-19T16:50:38;23.30;42.00
11246;DHT22;59870;50.106;8.580;2023-05-19T16:53:06;23.40;42.50
11246;DHT22;59870;50.106;8.580;2023-05-19T16:55:34;23.90;42.70
11246;DHT22;59870;50.106;8.580;2023-05-19T16:58:01;23.30;42.50
11246;DHT22;59870;50.106;8.580;2023-05-19T17:00:29;23.30;42.90
11246;DHT22;59870;50.106;8.580;2023-05-19T17:02:57;23.30;42.50
11246;DHT22;59870;50.106;8.580;2023-05-19T17:05:25;23.40;42.80
11246;DHT22;59870;50.106;8.580;2023-05-19T17:07:54;23.10;42.50
11246;DHT22;59870;50.106;8.580;2023-05-19T17:10:21;23.10;42.50
11246;DHT22;59870;50.106;8.580;2023-05-19T17:12:49;23.00;41.80
11246;DHT22;59870;50.106;8.580;2023-05-19T17:15:16;23.00;42.20
11246;DHT22;59870;50.106;8.580;2023-05-19T17:17:45;23.00;42.70
11246;DHT22;59870;50.106;8.580;2023-05-19T17:20:12;23.00;42.40
11246;DHT22;59870;50.106;8.580;2023-05-19T17:22:40;22.90;42.40
11246;DHT22;59870;50.106;8.580;2023-05-19T17:25:08;22.90;42.50
11246;DHT22;59870;50.106;8.580;2023-05-19T17:27:36;22.90;42.80
11246;DHT22;59870;50.106;8.580;2023-05-19T17:30:03;22.90;43.30
11246;DHT22;59870;50.106;8.580;2023-05-19T17:32:33;22.90;43.20
11246;DHT22;59870;50.106;8.580;2023-05-19T17:35:05;23.20;43.40
11246;DHT22;59870;50.106;8.580;2023-05-19T17:37:33;22.80;43.20
11246;DHT22;59870;50.106;8.580;2023-05-19T17:40:00;22.80;43.30
11246;DHT22;59870;50.106;8.580;2023-05-19T17:42:28;22.80;43.10
11246;DHT22;59870;50.106;8.580;2023-05-19T17:44:57;22.70;42.70
11246;DHT22;59870;50.106;8.580;2023-05-19T17:47:25;22.60;42.90
11246;DHT22;59870;50.106;8.580;2023-05-19T17:49:52;22.60;42.60
11246;DHT22;59870;50.106;8.580;2023-05-19T17:52:20;22.40;42.70
11246;DHT22;59870;50.106;8.580;2023-05-19T17:54:48;22.40;43.00
11246;DHT22;59870;50.106;8.580;2023-05-19T17:57:17;22.30;42.80
11246;DHT22;59870;50.106;8.580;2023-05-19T17:59:45;22.20;42.80
11246;DHT22;59870;50.106;8.580;2023-05-19T18:02:13;22.10;43.20
11246;DHT22;59870;50.106;8.580;2023-05-19T18:04:42;22.00;43.70
11246;DHT22;59870;50.106;8.580;2023-05-19T18:07:09;22.00;43.80
11246;DHT22;59870;50.106;8.580;2023-05-19T18:09:40;22.00;44.00
11246;DHT22;59870;50.106;8.580;2023-05-19T18:12:09;22.00;44.00
11246;DHT22;59870;50.106;8.580;2023-05-19T18:14:37;22.40;44.70
11246;DHT22;59870;50.106;8.580;2023-05-19T18:17:06;22.00;43.80
11246;DHT22;59870;50.106;8.580;2023-05-19T18:19:34;22.00;43.90
11246;DHT22;59870;50.106;8.580;2023-05-19T18:22:02;22.00;43.80
11246;DHT22;59870;50.106;8.580;2023-05-19T18:24:30;22.00;43.90
11246;DHT22;59870;50.106;8.580;2023-05-19T18:26:57;22.00;44.30
11246;DHT22;59870;50.106;8.580;2023-05-19T18:29:25;21.90;44.10
11246;DHT22;59870;50.106;8.580;2023-05-19T18:31:52;22.00;43.80
11246;DHT22;59870;50.106;8.580;2023-05-19T18:34:20;22.00;43.70
11246;DHT22;59870;50.106;8.580;2023-05-19T18:36:51;22.00;43.10
11246;DHT22;59870;50.106;8.580;2023-05-19T18:39:19;21.90;43.20
11246;DHT22;59870;50.106;8.580;2023-05-19T18:41:47;21.90;42.80
11246;DHT22;59870;50.106;8.580;2023-05-19T18:44:15;21.80;42.50
11246;DHT22;59870;50.106;8.580;2023-05-19T18:46:43;21.70;42.70
11246;DHT22;59870;50.106;8.580;2023-05-19T18:49:10;21.60;42.90
11246;DHT22;59870;50.106;8.580;2023-05-19T18:51:38;21.60;43.10
11246;DHT22;59870;50.106;8.580;2023-05-19T18:54:06;21.50;43.10
11246;DHT22;59870;50.106;8.580;2023-05-19T18:56:33;21.50;43.30
11246;DHT22;59870;50.106;8.580;2023-05-19T18:59:01;21.50;43.40
11246;DHT22;59870;50.106;8.580;2023-05-19T19:01:31;21.30;43.50
11246;DHT22;59870;50.106;8.580;2023-05-19T19:03:59;21.30;43.60
11246;DHT22;59870;50.106;8.580;2023-05-19T19:06:28;21.20;43.70
11246;DHT22;59870;50.106;8.580;2023-05-19T19:08:55;21.30;43.90
11246;DHT22;59870;50.106;8.580;2023-05-19T19:11:23;21.30;44.00
11246;DHT22;59870;50.106;8.580;2023-05-19T19:13:50;21.20;44.10
11246;DHT22;59870;50.106;8.580;2023-05-19T19:16:20;21.20;44.40
11246;DHT22;59870;50.106;8.580;2023-05-19T19:18:48;21.20;44.70
11246;DHT22;59870;50.106;8.580;2023-05-19T19:21:18;21.20;44.70
11246;DHT22;59870;50.106;8.580;2023-05-19T19:23:50;21.20;44.80
11246;DHT22;59870;50.106;8.580;2023-05-19T19:26:19;21.20;44.80
11246;DHT22;59870;50.106;8.580;2023-05-19T19:28:50;21.10;45.60
11246;DHT22;59870;50.106;8.580;2023-05-19T19:31:17;21.10;45.10
11246;DHT22;59870;50.106;8.580;2023-05-19T19:33:45;21.10;45.10
11246;DHT22;59870;50.106;8.580;2023-05-19T19:36:13;21.00;45.20
11246;DHT22;59870;50.106;8.580;2023-05-19T19:38:40;21.00;45.50
11246;DHT22;59870;50.106;8.580;2023-05-19T19:41:08;21.00;45.70
11246;DHT22;59870;50.106;8.580;2023-05-19T19:43:36;21.00;46.10
11246;DHT22;59870;50.106;8.580;2023-05-19T19:46:04;21.00;46.40
11246;DHT22;59870;50.106;8.580;2023-05-19T19:48:33;21.50;46.80
11246;DHT22;59870;50.106;8.580;2023-05-19T19:51:01;20.90;46.20
11246;DHT22;59870;50.106;8.580;2023-05-19T19:53:29;20.90;46.30
11246;DHT22;59870;50.106;8.580;2023-05-19T19:56:02;20.80;46.50
11246;DHT22;59870;50.106;8.580;2023-05-19T19:58:31;20.70;46.30
11246;DHT22;59870;50.106;8.580;2023-05-19T20:01:00;20.70;46.50
11246;DHT22;59870;50.106;8.580;2023-05-19T20:03:28;20.70;46.70
11246;DHT22;59870;50.106;8.580;2023-05-19T20:05:56;20.60;46.60
11246;DHT22;59870;50.106;8.580;2023-05-19T20:08:24;20.60;46.70
11246;DHT22;59870;50.106;8.580;2023-05-19T20:10:52;20.60;46.80
11246;DHT22;59870;50.106;8.580;2023-05-19T20:13:20;20.60;46.60
11246;DHT22;59870;50.106;8.580;2023-05-19T20:15:48;20.60;46.70
11246;DHT22;59870;50.106;8.580;2023-05-19T20:18:15;20.50;46.80
11246;DHT22;59870;50.106;8.580;2023-05-19T20:20:43;20.50;47.00
11246;DHT22;59870;50.106;8.580;2023-05-19T20:23:10;20.50;47.10
11246;DHT22;59870;50.106;8.580;2023-05-19T20:25:39;20.40;47.00
11246;DHT22;59870;50.106;8.580;2023-05-19T20:28:25;20.40;47.10
11246;DHT22;59870;50.106;8.580;2023-05-19T20:30:52;20.40;47.10
11246;DHT22;59870;50.106;8.580;2023-05-19T20:33:20;20.40;47.00
11246;DHT22;59870;50.106;8.580;2023-05-19T20:35:47;20.30;47.20
11246;DHT22;59870;50.106;8.580;2023-05-19T20:38:15;20.30;47.20
11246;DHT22;59870;50.106;8.580;2023-05-19T20:40:42;20.30;47.40
11246;DHT22;59870;50.106;8.580;2023-05-19T20:43:10;20.20;47.40
11246;DHT22;59870;50.106;8.580;2023-05-19T20:45:37;20.20;47.60
11246;DHT22;59870;50.106;8.580;2023-05-19T20:48:05;20.10;47.80
11246;DHT22;59870;50.106;8.580;2023-05-19T20:50:32;20.00;47.80
11246;DHT22;59870;50.106;8.580;2023-05-19T20:53:00;20.00;47.90
11246;DHT22;59870;50.106;8.580;2023-05-19T20:55:28;20.00;47.90
11246;DHT22;59870;50.106;8.580;2023-05-19T20:57:55;20.00;48.00
11246;DHT22;59870;50.106;8.580;2023-05-19T21:00:23;19.90;48.10
11246;DHT22;59870;50.106;8.580;2023-05-19T21:02:50;19.90;48.20
11246;DHT22;59870;50.106;8.580;2023-05-19T21:05:18;19.90;48.30
11246;DHT22;59870;50.106;8.580;2023-05-19T21:07:45;19.90;48.50
11246;DHT22;59870;50.106;8.580;2023-05-19T21:10:13;19.90;48.50
11246;DHT22;59870;50.106;8.580;2023-05-19T21:12:40;20.50;49.10
11246;DHT22;59870;50.106;8.580;2023-05-19T21:15:08;19.80;48.70
11246;DHT22;59870;50.106;8.580;2023-05-19T21:17:36;19.80;48.90
11246;DHT22;59870;50.106;8.580;2023-05-19T21:20:04;19.70;48.90
11246;DHT22;59870;50.106;8.580;2023-05-19T21:22:32;19.80;49.10
11246;DHT22;59870;50.106;8.580;2023-05-19T21:25:01;19.70;49.30
11246;DHT22;59870;50.106;8.580;2023-05-19T21:27:29;19.60;49.40
11246;DHT22;59870;50.106;8.580;2023-05-19T21:29:58;19.60;49.50
11246;DHT22;59870;50.106;8.580;2023-05-19T21:32:26;19.60;49.80
11246;DHT22;59870;50.106;8.580;2023-05-19T21:34:56;19.50;49.90
11246;DHT22;59870;50.106;8.580;2023-05-19T21:37:23;19.50;50.00
11246;DHT22;59870;50.106;8.580;2023-05-19T21:39:50;19.40;50.10
11246;DHT22;59870;50.106;8.580;2023-05-19T21:42:18;19.40;50.20
11246;DHT22;59870;50.106;8.580;2023-05-19T21:44:45;19.30;50.40
11246;DHT22;59870;50.106;8.580;2023-05-19T21:47:13;19.30;50.70
11246;DHT22;59870;50.106;8.580;2023-05-19T21:49:40;19.30;50.80
11246;DHT22;59870;50.106;8.580;2023-05-19T21:52:08;19.20;51.00
11246;DHT22;59870;50.106;8.580;2023-05-19T21:54:35;19.80;51.40
11246;DHT22;59870;50.106;8.580;2023-05-19T21:57:03;19.20;51.10
11246;DHT22;59870;50.106;8.580;2023-05-19T21:59:30;19.20;51.20
11246;DHT22;59870;50.106;8.580;2023-05-19T22:01:58;19.20;51.20
11246;DHT22;59870;50.106;8.580;2023-05-19T22:04:25;19.20;51.20
11246;DHT22;59870;50.106;8.580;2023-05-19T22:06:53;19.20;51.30
11246;DHT22;59870;50.106;8.580;2023-05-19T22:09:20;19.10;51.50
11246;DHT22;59870;50.106;8.580;2023-05-19T22:11:48;19.40;51.90
11246;DHT22;59870;50.106;8.580;2023-05-19T22:14:16;19.10;51.70
11246;DHT22;59870;50.106;8.580;2023-05-19T22:16:43;19.00;51.70
11246;DHT22;59870;50.106;8.580;2023-05-19T22:19:14;19.00;51.90
11246;DHT22;59870;50.106;8.580;2023-05-19T22:21:41;18.90;51.90
11246;DHT22;59870;50.106;8.580;2023-05-19T22:24:08;19.00;52.10
11246;DHT22;59870;50.106;8.580;2023-05-19T22:26:36;18.90;52.20
11246;DHT22;59870;50.106;8.580;2023-05-19T22:29:03;18.90;52.20
11246;DHT22;59870;50.106;8.580;2023-05-19T22:31:31;18.80;52.20
11246;DHT22;59870;50.106;8.580;2023-05-19T22:33:58;18.80;52.30
11246;DHT22;59870;50.106;8.580;2023-05-19T22:36:26;18.80;52.40
11246;DHT22;59870;50.106;8.580;2023-05-19T22:38:53;18.80;52.40
11246;DHT22;59870;50.106;8.580;2023-05-19T22:41:20;18.80;52.60
11246;DHT22;59870;50.106;8.580;2023-05-19T22:43:48;18.80;52.70
11246;DHT22;59870;50.106;8.580;2023-05-19T22:46:15;18.80;52.70
11246;DHT22;59870;50.106;8.580;2023-05-19T22:48:43;18.70;53.00
11246;DHT22;59870;50.106;8.580;2023-05-19T22:51:10;18.70;52.90
11246;DHT22;59870;50.106;8.580;2023-05-19T22:53:38;19.30;53.70
11246;DHT22;59870;50.106;8.580;2023-05-19T22:56:05;18.80;53.40
11246;DHT22;59870;50.106;8.580;2023-05-19T22:58:33;18.70;53.30
11246;DHT22;59870;50.106;8.580;2023-05-19T23:01:00;18.70;53.50
11246;DHT22;59870;50.106;8.580;2023-05-19T23:03:28;19.10;53.90
11246;DHT22;59870;50.106;8.580;2023-05-19T23:05:55;18.70;53.60
11246;DHT22;59870;50.106;8.580;2023-05-19T23:08:22;18.70;53.70
11246;DHT22;59870;50.106;8.580;2023-05-19T23:10:50;18.70;53.80
11246;DHT22;59870;50.106;8.580;2023-05-19T23:13:17;18.70;53.70
11246;DHT22;59870;50.106;8.580;2023-05-19T23:15:45;18.90;53.90
11246;DHT22;59870;50.106;8.580;2023-05-19T23:18:12;18.70;53.70
11246;DHT22;59870;50.106;8.580;2023-05-19T23:20:41;18.80;53.80
11246;DHT22;59870;50.106;8.580;2023-05-19T23:23:08;18.70;53.80
11246;DHT22;59870;50.106;8.580;2023-05-19T23:25:36;18.70;54.00
11246;DHT22;59870;50.106;8.580;2023-05-19T23:28:03;18.70;54.10
11246;DHT22;59870;50.106;8.580;2023-05-19T23:30:30;18.60;54.10
11246;DHT22;59870;50.106;8.580;2023-05-19T23:32:59;18.70;54.20
11246;DHT22;59870;50.106;8.580;2023-05-19T23:35:26;18.60;54.30
11246;DHT22;59870;50.106;8.580;2023-05-19T23:37:54;18.60;54.30
11246;DHT22;59870;50.106;8.580;2023-05-19T23:40:21;18.60;54.40
11246;DHT22;59870;50.106;8.580;2023-05-19T23:42:48;18.60;54.50
11246;DHT22;59870;50.106;8.580;2023-05-19T23:45:16;18.60;54.80
11246;DHT22;59870;50.106;8.580;2023-05-19T23:47:44;18.60;54.80
11246;DHT22;59870;50.106;8.580;2023-05-19T23:50:11;18.60;54.80
11246;DHT22;59870;50.106;8.580;2023-05-19T23:52:39;18.60;54.80
11246;DHT22;59870;50.106;8.580;2023-05-19T23:55:07;18.50;54.90
11246;DHT22;59870;50.106;8.580;2023-05-19T23:57:34;18.50;55.10
